Time;durP1;ratioP1;P1;durP2;ratioP2;P2;SDS_P1;SDS_P2;PMS_P1;PMS_P2;Temp;Humidity;BMP_temperature;BMP_pressure;BME280_temperature;BME280_humidity;BME280_pressure;Samples;Min_cycle;Max_cycle;Signal;HPM_P1;HPM_P2
2021/01/01 00:00:15;;;;;;;8.55;4.53;;;;;;;12.15;55.70;100349.31;5027015;28;20064;-44
2021/01/01 00:02:42;;;;;;;34.38;20.73;;;;;;;12.28;55.67;100357.72;5024667;28;20041;-44
2021/01/01 00:05:08;;;;;;;12.05;7.75;;;;;;;12.41;55.29;100340.34;5026853;28;20512;-42
2021/01/01 00:07:34;;;;;;;13.77;4.90;;;;;;;12.37;55.62;100352.69;5026988;28;20052;-45
2021/01/01 00:10:00;;;;;;;15.15;6.80;;;;;;;12.40;55.80;100338.72;5026591;28;20033;-44
2021/01/01 00:12:26;;;;;;;14.95;6.05;;;;;;;12.46;55.65;100326.94;5026698;28;20395;-46
2021/01/01 00:14:51;;;;;;;14.50;7.90;;;;;;;12.44;55.76;100330.94;5026658;28;20038;-43
2021/01/01 00:17:17;;;;;;;11.75;6.65;;;;;;;12.40;55.98;100325.28;5027615;28;20499;-44
2021/01/01 00:19:42;;;;;;;12.43;4.90;;;;;;;12.51;55.48;100330.72;5027170;28;20446;-44
2021/01/01 00:22:11;;;;;;;11.50;3.95;;;;;;;12.46;55.93;100326.09;5027464;28;20092;-46
2021/01/01 00:24:38;;;;;;;7.55;4.20;;;;;;;12.36;56.62;100316.13;5026680;28;20033;-43
2021/01/01 00:27:04;;;;;;;5.57;2.25;;;;;;;12.59;56.09;100320.25;5026283;28;20384;-47
2021/01/01 00:29:30;;;;;;;7.03;5.32;;;;;;;12.52;55.56;100314.31;5027290;28;20484;-43
2021/01/01 00:31:55;;;;;;;7.75;2.35;;;;;;;12.62;55.80;100327.81;5027495;28;20037;-43
2021/01/01 00:34:21;;;;;;;9.70;3.20;;;;;;;12.54;56.44;100324.81;5027214;28;20037;-44
2021/01/01 00:36:46;;;;;;;14.70;3.03;;;;;;;12.44;56.61;100296.78;5030991;28;20476;-46
2021/01/01 00:39:11;;;;;;;9.70;3.05;;;;;;;12.50;57.21;100303.03;5030598;28;20537;-45
2021/01/01 00:41:37;;;;;;;9.05;3.38;;;;;;;12.49;56.26;100310.25;5030726;28;20820;-44
2021/01/01 00:44:03;;;;;;;6.63;3.13;;;;;;;12.69;56.46;100308.72;5030839;28;20139;-44
2021/01/01 00:46:32;;;;;;;11.55;2.92;;;;;;;12.56;57.09;100304.66;5030525;28;20033;-44
2021/01/01 00:48:59;;;;;;;10.20;3.10;;;;;;;12.58;56.56;100307.88;5030599;28;20064;-44
2021/01/01 00:51:26;;;;;;;6.30;3.78;;;;;;;12.79;56.28;100318.72;5030737;28;20088;-46
2021/01/01 00:53:51;;;;;;;5.90;2.75;;;;;;;12.80;55.84;100315.75;5029880;28;20041;-43
2021/01/01 00:56:21;;;;;;;11.93;4.55;;;;;;;12.84;55.86;100311.47;5030119;28;20041;-47
2021/01/01 00:58:49;;;;;;;7.65;3.45;;;;;;;12.77;56.58;100315.47;5030400;28;20037;-45
2021/01/01 01:01:16;;;;;;;5.00;2.25;;;;;;;12.88;55.88;100316.31;5030404;28;20124;-45
2021/01/01 01:03:41;;;;;;;13.15;3.58;;;;;;;13.03;55.48;100313.69;5030311;28;20048;-45
2021/01/01 01:06:07;;;;;;;6.13;2.70;;;;;;;12.93;55.92;100309.06;5030468;28;20033;-43
2021/01/01 01:08:33;;;;;;;6.63;3.83;;;;;;;12.99;55.28;100312.56;5030273;28;20124;-46
2021/01/01 01:10:58;;;;;;;11.65;4.22;;;;;;;12.90;55.84;100309.59;5030350;28;20658;-44
2021/01/01 01:13:23;;;;;;;5.97;2.30;;;;;;;12.93;55.67;100305.56;5030014;28;20407;-43
2021/01/01 01:15:49;;;;;;;6.60;3.88;;;;;;;13.04;54.94;100317.97;5029945;28;20103;-45
2021/01/01 01:18:14;;;;;;;12.70;4.28;;;;;;;12.89;55.83;100307.19;5030246;28;20095;-47
2021/01/01 01:20:40;;;;;;;5.47;3.47;;;;;;;12.92;56.64;100302.09;5029815;28;20029;-45
2021/01/01 01:23:05;;;;;;;10.82;4.00;;;;;;;12.87;56.13;100315.53;5029852;28;20033;-43
2021/01/01 01:25:31;;;;;;;5.35;2.83;;;;;;;12.93;55.96;100314.44;5029750;28;20419;-44
2021/01/01 01:27:56;;;;;;;5.57;2.25;;;;;;;12.83;55.66;100325.19;5029563;28;20041;-42
2021/01/01 01:30:22;;;;;;;8.00;2.38;;;;;;;12.84;56.42;100322.22;5029468;28;20075;-42
2021/01/01 01:32:48;;;;;;;13.40;2.63;;;;;;;13.00;55.93;100328.44;5029197;28;20373;-46
2021/01/01 01:35:13;;;;;;;7.10;3.47;;;;;;;12.96;55.72;100323.88;5029023;28;20056;-44
2021/01/01 01:37:40;;;;;;;4.90;2.75;;;;;;;13.11;55.29;100315.03;5028874;28;20049;-43
2021/01/01 01:40:06;;;;;;;4.60;2.13;;;;;;;13.23;55.34;100319.06;5029029;28;20044;-45
2021/01/01 01:42:33;;;;;;;6.60;3.40;;;;;;;13.26;55.20;100322.34;5029822;28;20081;-45
2021/01/01 01:44:58;;;;;;;5.40;3.58;;;;;;;13.26;54.84;100312.38;5029849;28;20034;-45
2021/01/01 01:47:24;;;;;;;10.18;4.60;;;;;;;13.21;54.96;100315.03;5029216;28;20312;-42
2021/01/01 01:49:50;;;;;;;18.40;5.47;;;;;;;13.25;54.43;100313.44;5029370;28;20160;-43
2021/01/01 01:52:16;;;;;;;10.43;5.18;;;;;;;13.18;54.73;100308.31;5029135;28;20040;-45
2021/01/01 01:54:43;;;;;;;3.92;2.90;;;;;;;12.96;55.45;100305.06;5029033;28;20119;-45
2021/01/01 01:57:09;;;;;;;7.53;3.90;;;;;;;12.93;56.31;100302.88;5029531;28;20498;-43
2021/01/01 01:59:35;;;;;;;5.15;3.05;;;;;;;12.96;55.64;100307.75;5029298;28;20052;-50
2021/01/01 02:02:01;;;;;;;2.08;1.45;;;;;;;13.01;55.88;100303.16;5029665;28;20044;-47
2021/01/01 02:04:26;;;;;;;3.90;2.60;;;;;;;13.15;55.73;100305.34;5029528;28;20484;-44
2021/01/01 02:06:52;;;;;;;6.32;3.00;;;;;;;13.12;55.58;100295.91;5029143;28;20097;-45
2021/01/01 02:09:18;;;;;;;5.93;3.08;;;;;;;13.07;56.30;100298.59;5028275;28;20061;-47
2021/01/01 02:11:48;;;;;;;11.77;4.30;;;;;;;13.09;56.34;100291.06;5029744;28;20524;-44
2021/01/01 02:14:14;;;;;;;8.90;3.10;;;;;;;13.00;56.44;100285.41;5028909;28;20040;-43
2021/01/01 02:16:40;;;;;;;8.95;3.95;;;;;;;12.99;57.16;100283.78;5029508;28;20041;-46
2021/01/01 02:19:05;;;;;;;12.13;3.60;;;;;;;12.86;56.45;100284.28;5029639;28;20495;-42
2021/01/01 02:21:31;;;;;;;13.65;3.55;;;;;;;12.75;57.35;100280.78;5029579;28;20428;-45
2021/01/01 02:23:56;;;;;;;12.82;3.20;;;;;;;12.69;57.44;100273.75;5028926;28;20498;-43
2021/01/01 02:26:22;;;;;;;12.85;4.88;;;;;;;12.81;57.25;100274.31;5029131;28;20118;-43
2021/01/01 02:28:47;;;;;;;6.57;2.90;;;;;;;12.88;56.01;100267.88;5028926;28;20080;-44
2021/01/01 02:31:13;;;;;;;8.70;4.07;;;;;;;13.10;56.22;100271.16;5029053;28;20479;-45
2021/01/01 02:33:38;;;;;;;4.22;2.10;;;;;;;13.02;56.31;100266.28;5028385;28;20068;-43
2021/01/01 02:36:04;;;;;;;6.22;3.90;;;;;;;12.84;56.83;100240.72;5028995;28;20126;-42
2021/01/01 02:38:30;;;;;;;6.57;2.78;;;;;;;12.93;56.72;100244.47;5029058;28;20096;-44
2021/01/01 02:40:56;;;;;;;5.80;3.92;;;;;;;12.92;56.99;100250.97;5028992;28;20476;-43
2021/01/01 02:43:22;;;;;;;9.30;4.47;;;;;;;12.73;56.66;100244.44;5029132;28;20099;-43
2021/01/01 02:45:47;;;;;;;6.65;4.20;;;;;;;12.86;56.48;100252.81;5028970;28;20033;-45
2021/01/01 02:48:18;;;;;;;5.28;2.30;;;;;;;12.91;57.07;100235.06;5028625;28;20045;-43
2021/01/01 02:50:44;;;;;;;9.43;2.70;;;;;;;12.95;56.64;100234.25;5028984;28;20033;-45
2021/01/01 02:53:10;;;;;;;5.40;1.48;;;;;;;13.08;55.87;100235.63;5028398;28;20049;-43
2021/01/01 02:55:36;;;;;;;7.88;2.45;;;;;;;13.11;56.22;100240.47;5028403;28;20091;-43
2021/01/01 02:58:02;;;;;;;4.28;2.45;;;;;;;13.13;55.60;100235.66;5027915;28;20403;-44
2021/01/01 03:00:29;;;;;;;5.72;2.58;;;;;;;13.12;56.69;100225.94;5028458;28;20095;-43
2021/01/01 03:02:55;;;;;;;6.22;2.05;;;;;;;13.14;55.95;100215.72;5028655;28;20095;-43
2021/01/01 03:05:20;;;;;;;2.13;1.38;;;;;;;12.96;56.92;100213.56;5028553;28;20148;-44
2021/01/01 03:07:46;;;;;;;6.60;1.90;;;;;;;13.14;56.85;100218.41;5028411;28;20045;-43
2021/01/01 03:10:12;;;;;;;6.07;3.20;;;;;;;13.13;56.78;100206.03;5028188;28;20034;-45
2021/01/01 03:12:37;;;;;;;3.85;1.67;;;;;;;13.31;56.46;100201.19;5028429;28;20533;-43
2021/01/01 03:15:07;;;;;;;3.45;1.83;;;;;;;13.33;56.29;100207.13;5028235;28;20032;-49
2021/01/01 03:17:33;;;;;;;4.05;2.35;;;;;;;13.31;55.59;100203.88;5028511;28;20116;-44
2021/01/01 03:19:58;;;;;;;5.18;2.58;;;;;;;13.31;55.55;100196.63;5028513;28;20117;-43
2021/01/01 03:22:24;;;;;;;5.88;1.67;;;;;;;13.34;55.40;100206.03;5028431;28;20037;-43
2021/01/01 03:24:49;;;;;;;8.88;1.40;;;;;;;13.31;55.16;100195.81;5027685;28;20041;-45
2021/01/01 03:27:15;;;;;;;5.70;2.13;;;;;;;13.35;55.17;100208.47;5028216;28;20116;-45
2021/01/01 03:29:40;;;;;;;2.35;1.63;;;;;;;13.37;55.04;100202.81;5027765;28;20464;-45
2021/01/01 03:32:05;;;;;;;7.38;1.60;;;;;;;13.15;55.88;100197.69;5028333;28;20037;-44
2021/01/01 03:34:31;;;;;;;6.03;2.67;;;;;;;13.10;56.43;100195.81;5027610;28;20052;-44
2021/01/01 03:36:57;;;;;;;3.75;2.30;;;;;;;13.13;55.29;100189.88;5026322;28;20142;-43
2021/01/01 03:39:22;;;;;;;5.20;1.92;;;;;;;13.22;55.55;100196.34;5028035;28;20034;-42
2021/01/01 03:41:47;;;;;;;5.30;1.92;;;;;;;13.28;55.28;100189.06;5027758;28;20033;-44
2021/01/01 03:44:13;;;;;;;6.57;1.63;;;;;;;13.36;55.15;100187.75;5027962;28;20045;-45
2021/01/01 03:46:38;;;;;;;7.20;2.35;;;;;;;13.34;55.02;100189.88;5028155;28;20567;-42
2021/01/01 03:49:04;;;;;;;1.25;0.95;;;;;;;13.32;55.32;100178.59;5027917;28;20527;-45
2021/01/01 03:51:29;;;;;;;5.40;2.08;;;;;;;13.29;54.86;100184.47;5027984;28;20088;-44
2021/01/01 03:53:55;;;;;;;3.17;1.90;;;;;;;13.32;55.24;100183.97;5027420;28;20391;-43
2021/01/01 03:56:20;;;;;;;12.18;2.90;;;;;;;13.29;55.42;100182.59;5028076;28;20037;-44
2021/01/01 03:58:46;;;;;;;3.03;1.73;;;;;;;13.24;55.28;100180.72;5028056;28;20468;-47
2021/01/01 04:01:14;;;;;;;3.42;2.40;;;;;;;13.13;55.38;100175.59;5028227;28;20453;-43
2021/01/01 04:03:40;;;;;;;3.47;1.70;;;;;;;13.10;55.76;100173.47;5027323;28;20045;-43
2021/01/01 04:06:05;;;;;;;17.08;11.45;;;;;;;13.07;55.39;100174.81;5028226;28;20088;-45
2021/01/01 04:08:30;;;;;;;10.02;2.85;;;;;;;13.06;55.63;100165.13;5026900;28;20098;-45
2021/01/01 04:10:56;;;;;;;4.10;2.30;;;;;;;13.03;56.12;100160.28;5031008;28;20033;-45
2021/01/01 04:13:21;;;;;;;11.80;7.43;;;;;;;12.89;56.17;100162.69;5031920;28;20125;-44
2021/01/01 04:15:47;;;;;;;14.82;11.18;;;;;;;12.84;56.59;100155.41;5031987;28;20081;-48
2021/01/01 04:18:12;;;;;;;50.60;32.30;;;;;;;12.82;56.67;100141.44;5031589;28;20045;-44
2021/01/01 04:20:38;;;;;;;5.95;4.88;;;;;;;12.93;56.52;100138.75;5031928;28;20033;-47
2021/01/01 04:23:04;;;;;;;2.53;1.88;;;;;;;12.91;56.82;100133.63;5031384;28;20045;-46
2021/01/01 04:25:29;;;;;;;8.38;5.60;;;;;;;12.95;56.55;100126.63;5031242;28;20075;-50
2021/01/01 04:27:54;;;;;;;13.23;6.18;;;;;;;12.95;56.77;100128.50;5031081;28;20045;-44
2021/01/01 04:30:20;;;;;;;12.50;8.23;;;;;;;13.01;56.79;100114.00;5030974;28;20026;-44
2021/01/01 04:32:46;;;;;;;15.50;6.20;;;;;;;12.96;57.24;100122.06;5031062;28;20119;-45
2021/01/01 04:35:11;;;;;;;6.55;2.25;;;;;;;12.95;57.76;100123.13;5030691;28;20515;-44
2021/01/01 04:37:37;;;;;;;7.03;5.30;;;;;;;12.84;59.08;100111.56;5030866;28;20106;-46
2021/01/01 04:40:04;;;;;;;18.35;5.55;;;;;;;12.97;58.82;100113.72;5030847;28;20045;-44
2021/01/01 04:42:29;;;;;;;8.52;4.18;;;;;;;13.00;58.65;100107.78;5031004;28;20068;-47
2021/01/01 04:44:55;;;;;;;2.55;1.35;;;;;;;13.02;59.28;100102.13;5031334;28;20475;-44
2021/01/01 04:47:22;;;;;;;6.35;2.08;;;;;;;13.00;59.30;100088.94;5031456;28;20118;-44
2021/01/01 04:49:50;;;;;;;5.60;1.90;;;;;;;13.01;58.48;100090.56;5031273;28;20041;-44
2021/01/01 04:52:17;;;;;;;5.65;2.45;;;;;;;12.98;59.16;100082.25;5031232;28;20041;-45
2021/01/01 04:54:45;;;;;;;7.28;3.05;;;;;;;13.03;58.62;100091.09;5030191;28;20043;-45
2021/01/01 04:57:11;;;;;;;5.57;1.95;;;;;;;13.00;59.07;100093.53;5030899;28;20045;-45
2021/01/01 04:59:37;;;;;;;3.15;1.52;;;;;;;12.95;59.45;100088.16;5030554;28;20156;-45
2021/01/01 05:02:03;;;;;;;10.23;1.92;;;;;;;12.88;60.00;100090.31;5030661;28;20112;-46
2021/01/01 05:04:28;;;;;;;3.72;2.65;;;;;;;12.94;59.81;100099.97;5030821;28;20060;-43
2021/01/01 05:06:55;;;;;;;3.28;1.42;;;;;;;12.82;60.74;100089.53;5030998;28;20037;-48
2021/01/01 05:09:21;;;;;;;5.78;1.55;;;;;;;12.84;60.72;100088.16;5030627;28;20053;-45
2021/01/01 05:11:47;;;;;;;13.20;1.67;;;;;;;12.76;61.22;100094.09;5030579;28;20033;-45
2021/01/01 05:14:12;;;;;;;3.83;2.17;;;;;;;12.91;60.62;100089.78;5030531;28;20037;-44
2021/01/01 05:16:38;;;;;;;4.68;1.27;;;;;;;12.99;60.37;100092.72;5030895;28;20061;-46
2021/01/01 05:19:13;;;;;;;3.88;1.35;;;;;;;12.83;60.89;100091.13;5030717;28;20408;-41
2021/01/01 05:21:39;;;;;;;2.25;1.33;;;;;;;12.81;61.32;100083.31;5030195;28;20033;-42
2021/01/01 05:24:06;;;;;;;5.68;1.92;;;;;;;12.78;60.99;100086.56;5029658;28;20051;-44
2021/01/01 05:26:32;;;;;;;6.28;1.20;;;;;;;12.86;61.24;100077.13;5030076;28;20437;-45
2021/01/01 05:29:05;;;;;;;2.00;1.00;;;;;;;12.85;62.33;100080.91;5029806;28;20065;-45
2021/01/01 05:31:38;;;;;;;3.60;1.20;;;;;;;12.71;62.45;100085.19;5030062;28;20060;-44
2021/01/01 05:34:09;;;;;;;2.85;1.40;;;;;;;12.75;62.30;100084.41;5029938;28;20190;-45
2021/01/01 05:36:34;;;;;;;3.05;0.60;;;;;;;12.73;62.37;100086.56;5029811;28;20479;-47
2021/01/01 05:39:02;;;;;;;3.65;1.80;;;;;;;12.48;63.12;100095.41;5029636;28;20116;-42
2021/01/01 05:41:29;;;;;;;9.40;2.05;;;;;;;12.31;64.18;100095.66;5029989;28;20061;-44
2021/01/01 05:44:14;;;;;;;5.18;1.60;;;;;;;12.33;64.55;100090.03;5030246;28;20052;-44
2021/01/01 05:46:58;;;;;;;2.60;1.85;;;;;;;12.15;64.71;100102.06;5030310;28;20045;-45
2021/01/01 05:49:32;;;;;;;4.25;0.90;;;;;;;12.24;64.20;100097.81;5029264;28;20072;-43
2021/01/01 05:52:14;;;;;;;6.43;2.03;;;;;;;12.37;63.47;100091.91;5030544;28;20045;-43
2021/01/01 05:54:42;;;;;;;4.53;1.77;;;;;;;12.41;63.59;100094.88;5028965;28;20039;-45
2021/01/01 05:57:09;;;;;;;2.38;1.27;;;;;;;12.40;63.73;100095.94;5029640;28;20045;-46
2021/01/01 05:59:55;;;;;;;4.38;1.58;;;;;;;12.35;63.71;100099.44;5029040;28;20060;-43
2021/01/01 06:02:23;;;;;;;3.50;1.45;;;;;;;12.30;63.88;100094.84;5026431;28;20115;-44
2021/01/01 06:04:51;;;;;;;4.90;1.40;;;;;;;12.38;63.74;100088.16;5029384;28;20124;-48
2021/01/01 06:07:18;;;;;;;13.00;1.20;;;;;;;12.39;63.72;100099.69;5029805;28;20038;-45
2021/01/01 06:09:44;;;;;;;2.85;1.00;;;;;;;12.47;63.44;100091.13;5029535;28;20109;-44
2021/01/01 06:12:11;;;;;;;9.32;1.73;;;;;;;12.50;63.73;100087.91;5029789;28;20138;-44
2021/01/01 06:14:37;;;;;;;1.95;0.75;;;;;;;12.65;63.58;100081.72;5029280;28;20476;-44
2021/01/01 06:17:08;;;;;;;1.20;1.08;;;;;;;12.43;61.37;100081.97;5029125;28;20056;-44
2021/01/01 06:19:43;;;;;;;;;;;;;;;12.55;61.37;100071.78;5029610;28;20064;-44
2021/01/01 06:22:13;;;;;;;2.15;0.77;;;;;;;12.57;62.48;100072.31;5022663;28;19921;-43
2021/01/01 06:24:43;;;;;;;2.55;1.45;;;;;;;12.67;61.95;100072.31;5028480;28;20041;-45
2021/01/01 06:27:11;;;;;;;3.10;0.80;;;;;;;12.62;61.34;100072.31;5027599;28;20029;-46
2021/01/01 06:29:38;;;;;;;1.38;0.95;;;;;;;12.68;61.16;100073.91;5022476;28;20267;-43
2021/01/01 06:32:05;;;;;;;7.30;5.00;;;;;;;12.51;61.93;100094.06;5023899;28;20030;-43
2021/01/01 06:34:30;;;;;;;3.63;1.33;;;;;;;12.25;65.32;100102.94;5024090;28;20483;-43
2021/01/01 06:36:56;;;;;;;2.25;1.00;;;;;;;12.29;65.52;100093.25;5029242;28;20110;-44
2021/01/01 06:39:38;;;;;;;2.72;0.95;;;;;;;12.36;64.40;100098.38;5029042;28;20044;-44
2021/01/01 06:42:04;;;;;;;;;;;;;;;12.33;64.34;100095.41;5029741;28;20479;-45
2021/01/01 06:44:42;;;;;;;1.23;0.77;;;;;;;12.33;63.79;100095.41;5028992;28;19943;-45
2021/01/01 06:47:42;;;;;;;2.90;1.23;;;;;;;12.49;63.25;100097.03;5028457;28;20037;-46
2021/01/01 06:50:29;;;;;;;0.82;0.50;;;;;;;12.52;63.57;100098.38;5029179;28;20073;-44
2021/01/01 06:53:04;;;;;;;2.67;0.70;;;;;;;12.48;63.59;100093.53;5028794;28;20061;-45
2021/01/01 06:55:46;;;;;;;2.05;1.05;;;;;;;12.47;63.68;100089.22;5028177;28;20041;-47
2021/01/01 06:58:14;;;;;;;4.88;0.82;;;;;;;12.43;63.39;100090.03;5028198;28;20749;-46
2021/01/01 07:00:49;;;;;;;2.05;0.63;;;;;;;12.44;62.96;100079.00;5028122;28;20037;-46
2021/01/01 07:03:29;;;;;;;0.80;0.47;;;;;;;12.43;63.92;100079.28;5028598;28;20036;-46
2021/01/01 07:06:01;;;;;;;0.52;0.32;;;;;;;12.25;64.76;100073.38;5028827;28;20124;-43
2021/01/01 07:08:42;;;;;;;1.15;0.40;;;;;;;12.23;65.82;100074.69;5028736;28;20041;-44
2021/01/01 07:11:13;;;;;;;2.40;1.40;;;;;;;12.17;66.17;100071.19;5028647;28;20479;-45
2021/01/01 07:13:45;;;;;;;;;;;;;;;12.06;66.79;100074.91;5028241;28;20072;-44
2021/01/01 07:16:12;;;;;;;1.48;0.40;;;;;;;12.13;66.11;100066.59;5026106;28;20330;-48
2021/01/01 07:18:38;;;;;;;2.20;0.77;;;;;;;12.33;65.52;100063.16;5028003;28;20045;-47
2021/01/01 07:21:07;;;;;;;3.67;0.57;;;;;;;12.17;65.84;100060.44;5028028;28;20464;-44
2021/01/01 07:23:34;;;;;;;1.58;0.80;;;;;;;12.06;65.99;100059.63;5027784;28;20045;-44
2021/01/01 07:26:00;;;;;;;0.82;0.45;;;;;;;12.07;66.86;100069.28;5027937;28;20055;-45
2021/01/01 07:28:27;;;;;;;1.60;0.88;;;;;;;12.05;66.34;100066.03;5027659;28;20052;-44
2021/01/01 07:30:53;;;;;;;0.60;0.40;;;;;;;12.24;65.83;100063.66;5028112;28;20033;-46
2021/01/01 07:33:26;;;;;;;1.40;0.98;;;;;;;12.24;66.27;100073.63;5027770;28;20116;-49
2021/01/01 07:35:56;;;;;;;6.95;2.13;;;;;;;12.15;67.51;100091.31;5026827;28;20136;-45
2021/01/01 07:38:22;;;;;;;3.80;2.15;;;;;;;12.13;68.19;100080.84;5027866;28;20068;-47
2021/01/01 07:40:49;;;;;;;1.55;0.80;;;;;;;12.16;68.07;100064.19;5027541;28;20033;-44
2021/01/01 07:43:15;;;;;;;3.92;0.80;;;;;;;12.23;67.99;100064.72;5028040;28;20048;-45
2021/01/01 07:45:40;;;;;;;2.70;1.30;;;;;;;12.25;68.71;100072.53;5031900;28;20077;-43
2021/01/01 07:48:07;;;;;;;3.67;1.77;;;;;;;12.14;69.26;100065.53;5031721;28;20112;-48
2021/01/01 07:50:34;;;;;;;3.42;1.23;;;;;;;12.06;69.97;100061.47;5031665;28;20049;-48
2021/01/01 07:53:06;;;;;;;2.97;1.25;;;;;;;12.08;69.41;100059.34;5031450;28;20543;-46
2021/01/01 07:55:33;;;;;;;7.47;2.58;;;;;;;12.00;69.29;100068.72;5031289;28;20755;-43
2021/01/01 07:58:10;;;;;;;4.15;2.10;;;;;;;12.00;69.66;100068.72;5031555;28;20563;-44
2021/01/01 08:00:38;;;;;;;3.88;1.92;;;;;;;12.02;69.57;100068.47;5030515;28;20049;-45
2021/01/01 08:03:05;;;;;;;1.98;1.13;;;;;;;12.05;69.49;100071.41;5031335;28;20032;-43
2021/01/01 08:05:31;;;;;;;1.48;0.77;;;;;;;12.07;69.06;100093.44;5031612;28;20116;-45
2021/01/01 08:08:12;;;;;;;3.50;2.08;;;;;;;12.09;69.52;100095.88;5031651;28;20040;-42
2021/01/01 08:10:39;;;;;;;3.63;1.47;;;;;;;12.04;70.45;100093.19;5031303;28;20400;-43
2021/01/01 08:13:12;;;;;;;2.85;1.52;;;;;;;11.97;70.59;100088.03;5031473;28;20100;-42
2021/01/01 08:15:38;;;;;;;8.40;2.30;;;;;;;12.01;70.41;100082.94;5031469;28;20077;-42
2021/01/01 08:18:23;;;;;;;2.42;1.48;;;;;;;12.03;70.44;100078.94;5030881;28;20060;-49
2021/01/01 08:21:02;;;;;;;1.45;0.82;;;;;;;12.09;70.52;100072.50;5030453;28;20074;-42
2021/01/01 08:23:41;;;;;;;3.92;2.38;;;;;;;12.03;71.07;100070.88;5029115;28;20144;-44
2021/01/01 08:26:07;;;;;;;20.25;10.00;;;;;;;12.05;71.22;100058.00;5024411;28;20037;-46
2021/01/01 08:28:35;;;;;;;23.67;19.23;;;;;;;12.08;71.24;100049.41;5031572;28;20041;-44
2021/01/01 08:31:02;;;;;;;14.63;12.38;;;;;;;12.05;71.06;100060.69;5031413;28;20120;-45
2021/01/01 08:33:37;;;;;;;10.25;6.80;;;;;;;12.18;70.85;100056.66;5031068;28;20045;-45
2021/01/01 08:36:06;;;;;;;9.75;4.38;;;;;;;12.16;70.39;100050.75;5028880;28;20049;-46
2021/01/01 08:38:31;;;;;;;5.72;3.42;;;;;;;12.12;70.66;100041.63;5031222;28;20029;-44
2021/01/01 08:40:58;;;;;;;8.52;5.45;;;;;;;12.14;70.32;100039.47;5030834;28;20481;-41
2021/01/01 08:43:25;;;;;;;7.38;4.40;;;;;;;12.17;70.28;100024.69;5029419;28;20102;-46
2021/01/01 08:45:51;;;;;;;4.13;2.90;;;;;;;12.10;70.25;100019.59;5030829;28;20064;-45
2021/01/01 08:48:18;;;;;;;3.47;2.47;;;;;;;12.07;70.31;100020.91;5030393;28;20470;-43
2021/01/01 08:50:46;;;;;;;9.63;2.53;;;;;;;12.03;70.33;100014.47;5029687;28;20029;-42
2021/01/01 08:53:12;;;;;;;6.40;3.92;;;;;;;12.02;69.73;100009.34;5031130;28;20069;-45
2021/01/01 08:55:38;;;;;;;6.88;4.47;;;;;;;12.03;69.98;100005.59;5030072;28;20069;-46
2021/01/01 08:58:14;;;;;;;7.13;3.72;;;;;;;12.02;70.01;100020.91;5029344;28;20057;-44
2021/01/01 09:00:45;;;;;;;6.00;3.40;;;;;;;12.10;68.62;100017.69;5030482;28;20041;-46
2021/01/01 09:03:11;;;;;;;3.40;2.78;;;;;;;12.23;68.54;100010.97;5030950;28;20041;-43
2021/01/01 09:05:37;;;;;;;2.50;2.10;;;;;;;12.21;68.26;100017.72;5030132;28;20123;-41
2021/01/01 09:08:15;;;;;;;8.75;5.25;;;;;;;12.20;68.32;100026.84;5024661;28;20103;-43
2021/01/01 09:10:45;;;;;;;7.68;6.85;;;;;;;12.32;67.93;100016.63;5029734;28;20037;-43
2021/01/01 09:13:30;;;;;;;7.70;5.05;;;;;;;12.13;69.41;100012.84;5028852;28;20170;-43
2021/01/01 09:16:04;;;;;;;5.60;4.97;;;;;;;12.19;68.97;100011.81;5026965;28;20052;-42
2021/01/01 09:18:30;;;;;;;7.40;5.13;;;;;;;12.24;68.27;100011.81;5030394;28;20121;-44
2021/01/01 09:21:16;;;;;;;8.20;3.10;;;;;;;12.34;68.08;100011.81;5030177;28;20128;-42
2021/01/01 09:23:49;;;;;;;8.63;3.05;;;;;;;12.27;69.60;100008.56;5027813;28;20067;-44
2021/01/01 09:26:24;;;;;;;4.38;3.17;;;;;;;12.29;68.89;100003.75;5029927;28;20034;-42
2021/01/01 09:29:08;;;;;;;2.90;2.42;;;;;;;12.34;68.51;99994.84;5028918;28;20036;-44
2021/01/01 09:31:36;;;;;;;12.93;2.47;;;;;;;12.38;68.64;99991.38;5028961;28;20457;-44
2021/01/01 09:34:07;;;;;;;2.60;2.30;;;;;;;12.43;68.40;99986.00;5026865;28;20037;-43
2021/01/01 09:36:40;;;;;;;3.60;2.55;;;;;;;12.43;68.70;99977.94;5029591;28;20083;-44
2021/01/01 09:39:07;;;;;;;8.13;2.03;;;;;;;12.41;68.74;99958.59;5028313;28;20055;-42
2021/01/01 09:41:37;;;;;;;10.05;6.53;;;;;;;12.47;68.04;99960.16;5030143;28;20041;-45
2021/01/01 09:44:02;;;;;;;22.50;11.27;;;;;;;12.46;68.34;99961.28;5029990;28;20507;-49
2021/01/01 09:46:28;;;;;;;5.15;4.15;;;;;;;12.63;68.39;99974.41;5029050;28;20045;-43
2021/01/01 09:48:53;;;;;;;5.20;3.00;;;;;;;12.62;68.43;99980.88;5028076;28;20044;-42
2021/01/01 09:51:19;;;;;;;5.18;2.53;;;;;;;12.68;69.09;99984.34;5029777;28;20033;-43
2021/01/01 09:53:44;;;;;;;6.43;2.67;;;;;;;12.56;68.59;99989.22;5028737;28;20065;-42
2021/01/01 09:56:09;;;;;;;22.35;3.28;;;;;;;12.59;68.03;99980.63;5025501;28;20431;-45
2021/01/01 09:58:35;;;;;;;3.90;2.35;;;;;;;12.49;67.92;99978.72;5030032;28;20419;-45
2021/01/01 10:01:01;;;;;;;4.68;2.95;;;;;;;12.57;66.99;99975.50;5030226;28;20043;-44
2021/01/01 10:03:26;;;;;;;6.60;4.72;;;;;;;12.60;66.03;99971.44;5029570;28;20033;-46
2021/01/01 10:05:52;;;;;;;13.32;1.50;;;;;;;12.41;66.06;99972.03;5029677;28;20037;-44
2021/01/01 10:08:17;;;;;;;3.92;2.10;;;;;;;12.40;65.44;99964.22;5028384;28;20045;-43
2021/01/01 10:10:46;;;;;;;9.57;3.42;;;;;;;12.43;65.38;99955.59;5028868;28;20438;-46
2021/01/01 10:13:12;;;;;;;8.50;6.25;;;;;;;12.38;65.94;99942.97;5029769;28;20061;-43
2021/01/01 10:15:38;;;;;;;9.18;7.95;;;;;;;12.43;66.39;99958.28;5029318;28;20164;-41
2021/01/01 10:18:04;;;;;;;14.10;6.80;;;;;;;12.45;66.51;99951.56;5028670;28;20048;-43
2021/01/01 10:20:29;;;;;;;12.32;7.43;;;;;;;12.48;66.40;99940.28;5025084;28;20418;-41
2021/01/01 10:22:56;;;;;;;13.43;5.50;;;;;;;12.26;67.66;99939.78;5027228;28;20049;-42
2021/01/01 10:25:21;;;;;;;35.20;26.30;;;;;;;12.17;67.60;99944.09;5027090;28;20099;-43
2021/01/01 10:27:47;;;;;;;27.38;18.00;;;;;;;12.16;69.17;99940.56;5027028;28;20056;-42
2021/01/01 10:30:13;;;;;;;14.05;5.60;;;;;;;12.10;68.99;99947.81;5027203;28;20033;-42
2021/01/01 10:32:38;;;;;;;10.35;9.25;;;;;;;12.07;69.68;99969.06;5026780;28;20037;-41
2021/01/01 10:35:04;;;;;;;17.42;10.07;;;;;;;11.84;70.18;100016.00;5027070;28;20080;-42
2021/01/01 10:37:30;;;;;;;12.68;7.32;;;;;;;11.73;70.91;100034.78;5026986;28;20060;-43
2021/01/01 10:39:55;;;;;;;3.72;2.25;;;;;;;11.83;68.95;100028.63;5025093;28;20029;-44
2021/01/01 10:42:25;;;;;;;5.68;2.20;;;;;;;11.71;68.07;99996.63;5024438;28;20037;-41
2021/01/01 10:44:50;;;;;;;5.90;3.95;;;;;;;11.75;68.02;99983.50;5027958;28;20171;-42
2021/01/01 10:47:16;;;;;;;6.50;4.38;;;;;;;11.78;68.54;99966.03;5029097;28;20116;-42
2021/01/01 10:49:41;;;;;;;1.90;1.13;;;;;;;11.73;68.26;99959.59;5028889;28;20132;-42
2021/01/01 10:52:07;;;;;;;3.90;1.25;;;;;;;11.72;68.41;99941.84;5028834;28;20033;-46
2021/01/01 10:54:32;;;;;;;2.20;1.38;;;;;;;11.76;68.82;99935.94;5028851;28;20061;-43
2021/01/01 10:56:58;;;;;;;11.38;2.20;;;;;;;11.67;68.50;99923.03;5027336;28;20030;-41
2021/01/01 10:59:24;;;;;;;11.27;6.28;;;;;;;11.59;69.82;99907.47;5027403;28;20037;-43
2021/01/01 11:01:56;;;;;;;12.85;8.13;;;;;;;11.65;69.48;99902.91;5028938;28;20341;-44
2021/01/01 11:04:22;;;;;;;12.18;7.85;;;;;;;11.77;69.32;99899.97;5028840;28;20103;-41
2021/01/01 11:06:47;;;;;;;7.05;5.38;;;;;;;11.77;67.79;99892.72;5028830;28;20049;-43
2021/01/01 11:09:13;;;;;;;6.07;4.82;;;;;;;11.89;67.17;99889.78;5028640;28;20041;-42
2021/01/01 11:11:38;;;;;;;5.15;2.92;;;;;;;11.83;68.63;99885.47;5028711;28;20053;-41
2021/01/01 11:14:15;;;;;;;6.35;4.80;;;;;;;11.93;69.49;99888.19;5028391;28;20034;-45
2021/01/01 12:25:58;;;;;;;2.75;2.05;;;;;;;13.18;64.03;99777.22;5026868;28;20039;-43
2021/01/01 12:28:24;;;;;;;6.45;2.78;;;;;;;13.21;64.22;99777.47;5026966;28;20033;-44
2021/01/01 12:30:54;;;;;;;2.85;2.25;;;;;;;13.16;65.39;99774.81;5027178;28;20407;-47
2021/01/01 12:33:21;;;;;;;6.35;3.10;;;;;;;13.22;65.64;99775.59;5030904;28;20033;-44
2021/01/01 12:35:47;;;;;;;6.03;2.53;;;;;;;13.30;65.68;99769.59;5030697;28;20053;-45